createdAt,value
2022-08-22T00:00:25.084Z,24.09
2022-08-22T00:01:53.741Z,24.18
2022-08-22T00:02:42.776Z,26.04
2022-08-22T00:03:07.175Z,25.89
2022-08-22T00:03:11.263Z,25.17
2022-08-22T00:04:34.399Z,23.74
2022-08-22T00:05:43.628Z,24.10
2022-08-22T00:07:22.978Z,24.12
2022-08-22T00:08:30.453Z,23.97
2022-08-22T00:09:46.059Z,23.94
2022-08-22T00:11:25.627Z,23.98
2022-08-22T00:12:36.365Z,23.98
2022-08-22T00:13:41.510Z,24.13
2022-08-22T00:14:58.577Z,24.06
2022-08-22T00:16:16.349Z,24.04
2022-08-22T00:17:50.540Z,24.11
2022-08-22T00:19:16.496Z,24.14
2022-08-22T00:20:41.837Z,24.06
2022-08-22T00:21:49.816Z,24.09
2022-08-22T00:23:13.169Z,24.20
2022-08-22T00:24:35.886Z,24.12
2022-08-22T00:25:56.851Z,23.79
2022-08-22T00:27:04.404Z,24.07
2022-08-22T00:28:15.499Z,23.76
2022-08-22T00:29:23.952Z,24.00
2022-08-22T00:30:26.626Z,23.79
2022-08-22T00:31:40.607Z,24.08
2022-08-22T00:32:42.744Z,23.76
2022-08-22T00:33:53.827Z,24.05
2022-08-22T00:35:10.625Z,24.04
2022-08-22T00:36:23.265Z,23.95
2022-08-22T00:37:41.792Z,24.01
2022-08-22T00:39:02.841Z,23.96
2022-08-22T00:40:42.434Z,24.04
2022-08-22T00:41:44.558Z,23.68
2022-08-22T00:43:05.026Z,23.66
2022-08-22T00:44:17.334Z,24.03
2022-08-22T00:45:50.529Z,24.10
2022-08-22T00:47:14.202Z,24.02
2022-08-22T00:48:28.098Z,24.01
2022-08-22T00:49:56.278Z,24.07
2022-08-22T00:51:16.644Z,24.18
2022-08-22T00:52:30.365Z,23.79
2022-08-22T00:54:17.536Z,24.18
2022-08-22T00:55:50.705Z,24.15
2022-08-22T00:57:13.450Z,24.14
2022-08-22T00:58:23.839Z,24.15
2022-08-22T00:59:53.307Z,24.09
2022-08-22T01:01:03.241Z,24.05
2022-08-22T01:02:23.939Z,23.72
2022-08-22T01:03:52.850Z,23.73
2022-08-22T01:05:42.049Z,24.04
2022-08-22T01:06:51.601Z,23.69
2022-08-22T01:08:12.409Z,23.69
2022-08-22T01:09:14.595Z,23.63
2022-08-22T01:10:47.562Z,23.97
2022-08-22T01:12:11.859Z,23.91
2022-08-22T01:13:23.459Z,23.92
2022-08-22T01:14:44.386Z,23.53
2022-08-22T01:15:47.859Z,23.92
2022-08-22T01:17:00.654Z,23.91
2022-08-22T01:18:05.493Z,23.57
2022-08-22T01:19:39.970Z,23.89
2022-08-22T01:21:03.644Z,23.83
2022-08-22T01:22:23.930Z,23.89
2022-08-22T01:24:23.086Z,23.88
2022-08-22T01:25:32.348Z,23.49
2022-08-22T01:27:10.646Z,23.88
2022-08-22T01:28:47.152Z,23.89
2022-08-22T01:30:12.250Z,23.80
2022-08-22T01:31:23.718Z,23.41
2022-08-22T01:32:31.403Z,23.67
2022-08-22T01:34:04.724Z,23.77
2022-08-22T01:35:28.283Z,23.70
2022-08-22T01:36:45.523Z,23.69
2022-08-22T01:37:56.777Z,23.52
2022-08-22T01:39:20.559Z,23.50
2022-08-22T01:40:56.843Z,23.58
2022-08-22T01:42:04.994Z,23.48
2022-08-22T01:43:16.631Z,23.47
2022-08-22T01:44:22.103Z,23.47
2022-08-22T01:45:42.298Z,23.53
2022-08-22T01:47:02.587Z,23.50
2022-08-22T01:48:31.339Z,23.46
2022-08-22T01:49:33.462Z,23.14
2022-08-22T01:50:38.397Z,23.37
2022-08-22T01:51:50.399Z,23.41
2022-08-22T01:52:59.763Z,23.48
2022-08-22T01:54:21.941Z,23.46
2022-08-22T01:55:26.737Z,23.11
2022-08-22T01:56:36.179Z,23.30
2022-08-22T01:57:57.405Z,23.42
2022-08-22T01:59:11.174Z,23.30
2022-08-22T02:00:18.144Z,23.27
2022-08-22T02:01:44.251Z,23.31
2022-08-22T02:03:14.812Z,23.39
2022-08-22T02:04:36.044Z,23.33
2022-08-22T02:05:54.275Z,23.23
2022-08-22T02:07:06.570Z,23.20
2022-08-22T02:08:46.702Z,23.29
2022-08-22T02:10:23.566Z,23.24
2022-08-22T02:11:58.851Z,23.27
2022-08-22T02:13:23.199Z,23.27
2022-08-22T02:14:32.703Z,23.28
2022-08-22T02:15:40.893Z,23.21
2022-08-22T02:16:48.245Z,23.13
2022-08-22T02:18:05.335Z,22.78
2022-08-22T02:19:16.438Z,23.09
2022-08-22T02:20:28.886Z,23.07
2022-08-22T02:21:42.969Z,23.10
2022-08-22T02:23:00.813Z,23.06
2022-08-22T02:24:16.218Z,22.94
2022-08-22T02:25:25.665Z,22.97
2022-08-22T02:26:51.354Z,22.67
2022-08-22T02:28:06.460Z,22.97
2022-08-22T02:29:23.207Z,23.02
2022-08-22T02:30:42.173Z,23.03
2022-08-22T02:31:44.372Z,22.65
2022-08-22T02:32:54.227Z,22.97
2022-08-22T02:33:59.403Z,22.87
2022-08-22T02:35:14.303Z,23.05
2022-08-22T02:36:30.224Z,22.91
2022-08-22T02:37:55.363Z,22.90
2022-08-22T02:39:21.427Z,22.97
2022-08-22T02:40:34.276Z,22.83
2022-08-22T02:41:55.528Z,22.86
2022-08-22T02:43:36.000Z,22.78
2022-08-22T02:45:10.482Z,22.72
2022-08-22T02:46:19.283Z,22.57
2022-08-22T02:47:32.390Z,22.55
2022-08-22T02:48:52.546Z,22.51
2022-08-22T02:50:38.932Z,22.58
2022-08-22T02:51:59.602Z,22.19
2022-08-22T02:53:14.648Z,22.43
2022-08-22T02:54:35.610Z,22.09
2022-08-22T02:55:48.168Z,22.51
2022-08-22T02:57:16.664Z,22.39
2022-08-22T02:58:44.105Z,22.27
2022-08-22T03:00:30.647Z,22.33
2022-08-22T03:01:55.973Z,22.28
2022-08-22T03:03:07.263Z,22.28
2022-08-22T03:04:32.699Z,22.26
2022-08-22T03:05:37.664Z,22.23
2022-08-22T03:06:43.619Z,22.16
2022-08-22T03:08:00.310Z,22.23
2022-08-22T03:09:15.222Z,21.99
2022-08-22T03:10:26.394Z,22.29
2022-08-22T03:11:32.170Z,22.23
2022-08-22T03:12:56.971Z,22.47
2022-08-22T03:14:11.857Z,22.07
2022-08-22T03:15:26.088Z,22.49
2022-08-22T03:16:59.983Z,22.44
2022-08-22T03:18:28.075Z,22.49
2022-08-22T03:19:46.214Z,22.40
2022-08-22T03:21:16.187Z,22.62
2022-08-22T03:22:24.481Z,22.24
2022-08-22T03:24:00.508Z,22.66
2022-08-22T03:25:10.173Z,22.59
2022-08-22T03:26:18.171Z,22.27
2022-08-22T03:27:33.252Z,22.61
2022-08-22T03:28:52.619Z,22.63
2022-08-22T03:30:24.906Z,22.62
2022-08-22T03:31:29.952Z,22.51
2022-08-22T03:32:59.107Z,22.69
2022-08-22T03:34:25.130Z,22.68
2022-08-22T03:35:27.262Z,22.24
2022-08-22T03:36:31.471Z,22.36
2022-08-22T03:37:37.633Z,22.46
2022-08-22T03:38:48.853Z,22.45
2022-08-22T03:39:51.143Z,22.11
2022-08-22T03:41:27.200Z,22.52
2022-08-22T03:42:35.248Z,22.41
2022-08-22T03:44:01.981Z,22.46
2022-08-22T03:45:07.184Z,22.08
2022-08-22T03:46:22.820Z,22.41
2022-08-22T03:47:47.712Z,22.41
2022-08-22T03:49:37.962Z,22.42
2022-08-22T03:51:17.781Z,22.43
2022-08-22T03:53:06.025Z,22.39
2022-08-22T03:54:23.249Z,22.32
2022-08-22T03:55:31.121Z,22.30
2022-08-22T03:56:37.759Z,21.96
2022-08-22T03:58:04.481Z,22.30
2022-08-22T03:59:31.279Z,22.32
2022-08-22T04:00:52.940Z,21.85
2022-08-22T04:02:01.472Z,22.16
2022-08-22T04:03:24.024Z,22.20
2022-08-22T04:04:47.417Z,22.23
2022-08-22T04:06:06.113Z,22.16
2022-08-22T04:07:32.059Z,22.13
2022-08-22T04:09:10.023Z,22.21
2022-08-22T04:10:31.132Z,22.25
2022-08-22T04:12:04.560Z,22.20
2022-08-22T04:13:28.589Z,22.30
2022-08-22T04:15:04.355Z,22.26
2022-08-22T04:16:34.544Z,22.34
2022-08-22T04:17:54.915Z,22.34
2022-08-22T04:19:25.002Z,22.32
2022-08-22T04:20:50.553Z,22.33
2022-08-22T04:22:18.135Z,22.37
2022-08-22T04:23:39.654Z,22.30
2022-08-22T04:24:52.104Z,22.29
2022-08-22T04:26:10.757Z,22.29
2022-08-22T04:27:24.133Z,22.33
2022-08-22T04:28:37.813Z,22.31
2022-08-22T04:30:05.948Z,22.42
2022-08-22T04:31:14.411Z,22.41
2022-08-22T04:32:36.779Z,22.50
2022-08-22T04:33:52.558Z,22.50
2022-08-22T04:35:02.245Z,22.49
2022-08-22T04:36:26.449Z,22.64
2022-08-22T04:37:29.105Z,22.31
2022-08-22T04:38:55.340Z,22.64
2022-08-22T04:40:07.999Z,22.68
2022-08-22T04:41:51.983Z,22.74
2022-08-22T04:43:19.715Z,22.79
2022-08-22T04:44:57.672Z,22.76
2022-08-22T04:46:37.025Z,22.76
2022-08-22T04:47:54.026Z,22.68
2022-08-22T04:49:02.681Z,22.42
2022-08-22T04:50:22.182Z,22.75
2022-08-22T04:51:33.801Z,22.73
2022-08-22T04:53:11.219Z,22.80
2022-08-22T04:54:46.588Z,22.92
2022-08-22T04:56:25.268Z,22.95
2022-08-22T04:57:45.681Z,23.03
2022-08-22T04:58:55.293Z,22.81
2022-08-22T05:00:04.205Z,22.75
2022-08-22T05:01:12.578Z,22.91
2022-08-22T05:02:22.571Z,22.88
2022-08-22T05:03:28.923Z,22.86
2022-08-22T05:04:56.485Z,23.02
2022-08-22T05:06:02.907Z,22.93
2022-08-22T05:07:11.751Z,23.08
2022-08-22T05:08:21.820Z,23.09
2022-08-22T05:09:31.824Z,23.13
2022-08-22T05:10:38.525Z,23.13
2022-08-22T05:11:42.185Z,23.06
2022-08-22T05:12:50.462Z,23.25
2022-08-22T05:13:57.358Z,23.30
2022-08-22T05:15:13.673Z,23.42
2022-08-22T05:16:24.454Z,23.47
2022-08-22T05:17:28.459Z,23.67
2022-08-22T05:18:35.336Z,23.56
2022-08-22T05:19:43.262Z,23.65
2022-08-22T05:20:49.358Z,23.54
2022-08-22T05:21:52.341Z,23.49
2022-08-22T05:23:05.926Z,23.77
2022-08-22T05:24:14.314Z,23.69
2022-08-22T05:25:21.890Z,23.75
2022-08-22T05:26:25.713Z,23.69
2022-08-22T05:27:35.042Z,23.88
2022-08-22T05:28:38.977Z,23.56
2022-08-22T05:29:46.742Z,23.83
2022-08-22T05:30:50.200Z,23.69
2022-08-22T05:32:06.372Z,24.09
2022-08-22T05:33:32.018Z,24.22
2022-08-22T05:34:42.102Z,24.15
2022-08-22T05:35:57.749Z,24.24
2022-08-22T05:37:10.974Z,24.27
2022-08-22T05:38:18.669Z,24.21
2022-08-22T05:39:25.451Z,24.37
2022-08-22T05:40:33.352Z,24.38
2022-08-22T05:41:37.910Z,24.51
2022-08-22T05:42:40.128Z,24.39
2022-08-22T05:43:44.255Z,24.64
2022-08-22T05:44:46.575Z,24.61
2022-08-22T05:45:49.210Z,24.62
2022-08-22T05:47:01.331Z,24.88
2022-08-22T05:48:09.792Z,25.01
2022-08-22T05:49:35.883Z,25.06
2022-08-22T05:50:41.563Z,24.89
2022-08-22T05:51:53.632Z,25.17
2022-08-22T05:53:12.810Z,25.29
2022-08-22T05:54:21.582Z,25.22
2022-08-22T05:56:15.737Z,25.67
2022-08-22T05:57:31.386Z,25.76
2022-08-22T05:59:00.145Z,25.80
2022-08-22T06:00:11.913Z,25.99
2022-08-22T06:01:38.789Z,26.18
2022-08-22T06:03:18.474Z,26.37
2022-08-22T06:04:44.951Z,26.40
2022-08-22T06:05:52.928Z,26.33
2022-08-22T06:07:01.096Z,26.14
2022-08-22T06:08:10.393Z,26.39
2022-08-22T06:09:24.535Z,26.32
2022-08-22T06:10:48.267Z,26.39
2022-08-22T06:11:55.295Z,25.85
2022-08-22T06:13:01.990Z,25.90
2022-08-22T06:14:17.467Z,26.26
2022-08-22T06:15:36.289Z,26.34
2022-08-22T06:16:49.436Z,26.29
2022-08-22T06:18:05.104Z,26.31
2022-08-22T06:19:19.289Z,26.03
2022-08-22T06:20:39.410Z,26.03
2022-08-22T06:21:44.487Z,25.77
2022-08-22T06:22:53.642Z,25.83
2022-08-22T06:24:00.017Z,25.80
2022-08-22T06:25:12.821Z,25.81
2022-08-22T06:26:20.603Z,25.72
2022-08-22T06:27:27.019Z,25.75
2022-08-22T06:28:54.615Z,25.75
2022-08-22T06:30:02.634Z,25.87
2022-08-22T06:31:08.244Z,25.75
2022-08-22T06:32:15.916Z,25.94
2022-08-22T06:33:23.418Z,26.05
2022-08-22T06:34:35.895Z,26.31
2022-08-22T06:36:08.981Z,26.29
2022-08-22T06:37:19.753Z,26.67
2022-08-22T06:38:25.024Z,26.86
2022-08-22T06:39:35.512Z,26.94
2022-08-22T06:40:40.854Z,27.06
2022-08-22T06:41:52.554Z,27.21
2022-08-22T06:42:57.170Z,27.08
2022-08-22T06:44:02.040Z,27.59
2022-08-22T06:45:33.639Z,28.42
2022-08-22T06:46:38.210Z,28.22
2022-08-22T06:47:50.209Z,28.31
2022-08-22T06:48:55.602Z,28.35
2022-08-22T06:50:14.353Z,28.56
2022-08-22T06:51:19.362Z,28.20
2022-08-22T06:52:25.921Z,28.11
2022-08-22T06:53:37.133Z,28.31
2022-08-22T06:54:46.631Z,28.44
2022-08-22T06:56:03.377Z,28.34
2022-08-22T06:57:12.124Z,28.19
2022-08-22T06:58:20.937Z,28.25
2022-08-22T06:59:27.447Z,28.07
2022-08-22T07:00:33.771Z,28.01
2022-08-22T07:01:44.703Z,28.08
2022-08-22T07:02:54.706Z,28.04
2022-08-22T07:04:08.604Z,27.89
2022-08-22T07:05:17.728Z,27.83
2022-08-22T07:06:30.732Z,27.77
2022-08-22T07:07:33.009Z,27.23
2022-08-22T07:08:39.064Z,27.39
2022-08-22T07:09:41.821Z,27.30
2022-08-22T07:10:47.703Z,27.59
2022-08-22T07:11:52.223Z,27.71
2022-08-22T07:12:56.850Z,27.99
2022-08-22T07:14:03.282Z,27.94
2022-08-22T07:15:20.426Z,28.22
2022-08-22T07:16:56.252Z,28.07
2022-08-22T07:18:02.095Z,28.45
2022-08-22T07:19:04.594Z,28.44
2022-08-22T07:20:24.553Z,29.01
2022-08-22T07:21:30.332Z,28.91
2022-08-22T07:22:37.527Z,28.81
2022-08-22T07:23:48.107Z,29.05
2022-08-22T07:25:01.560Z,29.33
2022-08-22T07:26:41.233Z,29.54
2022-08-22T07:28:04.459Z,29.75
2022-08-22T07:29:17.124Z,29.37
2022-08-22T07:30:27.688Z,29.56
2022-08-22T07:31:34.108Z,29.51
2022-08-22T07:32:57.736Z,29.88
2022-08-22T07:34:57.741Z,29.60
2022-08-22T07:36:05.770Z,29.61
2022-08-22T07:37:17.756Z,29.65
2022-08-22T07:38:34.928Z,30.05
2022-08-22T07:39:50.212Z,29.98
2022-08-22T07:41:22.406Z,30.32
2022-08-22T07:42:37.959Z,30.57
2022-08-22T07:43:50.368Z,30.77
2022-08-22T07:45:05.491Z,30.54
2022-08-22T07:46:28.798Z,31.22
2022-08-22T07:47:58.335Z,30.58
2022-08-22T07:49:22.208Z,30.74
2022-08-22T07:50:30.011Z,30.83
2022-08-22T07:51:39.929Z,30.43
2022-08-22T07:52:45.709Z,30.49
2022-08-22T07:54:00.914Z,31.01
2022-08-22T07:55:08.235Z,31.16
2022-08-22T07:56:24.382Z,31.56
2022-08-22T07:57:37.438Z,31.64
2022-08-22T07:58:42.976Z,31.74
2022-08-22T07:59:53.825Z,31.76
2022-08-22T08:00:57.339Z,31.92
2022-08-22T08:02:01.744Z,32.33
2022-08-22T08:03:07.134Z,32.47
2022-08-22T08:04:13.142Z,32.57
2022-08-22T08:05:17.429Z,32.13
2022-08-22T08:06:23.426Z,32.36
2022-08-22T08:07:28.954Z,32.53
2022-08-22T08:08:44.378Z,32.99
2022-08-22T08:09:51.183Z,32.87
2022-08-22T08:10:57.318Z,33.16
2022-08-22T08:12:02.448Z,32.82
2022-08-22T08:13:13.074Z,32.71
2022-08-22T08:14:16.749Z,32.27
2022-08-22T08:15:22.892Z,32.09
2022-08-22T08:16:28.822Z,32.22
2022-08-22T08:17:35.349Z,32.27
2022-08-22T08:18:39.533Z,32.32
2022-08-22T08:19:44.779Z,32.48
2022-08-22T08:20:54.402Z,32.68
2022-08-22T08:21:58.773Z,33.16
2022-08-22T08:23:02.977Z,33.12
2022-08-22T08:24:08.641Z,34.07
2022-08-22T08:25:20.384Z,34.73
2022-08-22T08:26:30.219Z,35.12
2022-08-22T08:27:56.429Z,35.74
2022-08-22T08:28:59.443Z,35.90
2022-08-22T08:30:05.168Z,35.38
2022-08-22T08:31:14.966Z,35.56
2022-08-22T08:32:18.181Z,36.05
2022-08-22T08:33:25.091Z,36.34
2022-08-22T08:34:32.409Z,36.71
2022-08-22T08:36:02.794Z,36.82
2022-08-22T08:37:27.785Z,37.50
2022-08-22T08:39:12.578Z,36.44
2022-08-22T08:40:26.869Z,36.46
2022-08-22T08:41:47.090Z,36.45
2022-08-22T08:43:18.556Z,36.78
2022-08-22T08:44:27.562Z,36.52
2022-08-22T08:46:15.720Z,36.20
2022-08-22T08:47:35.918Z,36.13
2022-08-22T08:49:19.648Z,36.03
2022-08-22T08:50:44.097Z,35.38
2022-08-22T08:52:01.325Z,35.06
2022-08-22T08:53:36.510Z,35.20
2022-08-22T08:55:00.489Z,35.18
2022-08-22T08:56:14.657Z,34.37
2022-08-22T08:57:22.423Z,34.57
2022-08-22T08:58:46.448Z,34.62
2022-08-22T09:00:16.479Z,34.33
2022-08-22T09:01:59.830Z,34.11
2022-08-22T09:03:12.117Z,34.17
2022-08-22T09:05:07.614Z,34.26
2022-08-22T09:06:33.196Z,34.21
2022-08-22T09:07:42.018Z,34.79
2022-08-22T09:08:59.155Z,35.02
2022-08-22T09:10:43.456Z,34.97
2022-08-22T09:12:13.539Z,35.21
2022-08-22T09:13:29.007Z,34.65
2022-08-22T09:15:11.894Z,34.24
2022-08-22T09:16:36.075Z,33.80
2022-08-22T09:18:13.913Z,34.16
2022-08-22T09:19:51.033Z,34.93
2022-08-22T09:20:59.306Z,35.33
2022-08-22T09:22:05.430Z,35.09
2022-08-22T09:23:56.144Z,35.77
2022-08-22T09:25:23.491Z,34.55
2022-08-22T09:26:32.062Z,34.11
2022-08-22T09:27:55.993Z,34.39
2022-08-22T09:29:55.062Z,34.31
2022-08-22T09:31:44.759Z,33.68
2022-08-22T09:33:16.904Z,33.91
2022-08-22T09:34:41.056Z,34.34
2022-08-22T09:36:13.231Z,34.97
2022-08-22T09:37:28.986Z,34.49
2022-08-22T09:38:49.625Z,34.60
2022-08-22T09:42:08.066Z,34.52
2022-08-22T09:43:21.340Z,34.28
2022-08-22T09:44:53.229Z,34.69
2022-08-22T09:46:15.822Z,34.95
2022-08-22T09:47:31.392Z,35.08
2022-08-22T09:48:53.335Z,34.85
2022-08-22T09:49:58.230Z,35.00
2022-08-22T09:51:40.373Z,35.66
2022-08-22T09:52:42.506Z,35.05
2022-08-22T09:53:47.274Z,35.20
2022-08-22T09:55:35.162Z,35.77
2022-08-22T09:57:03.178Z,34.43
2022-08-22T09:58:20.840Z,34.59
2022-08-22T09:59:38.995Z,34.37
2022-08-22T10:01:02.255Z,34.48
2022-08-22T10:02:43.670Z,34.39
2022-08-22T10:03:45.958Z,34.14
2022-08-22T10:05:12.895Z,34.07
2022-08-22T10:06:44.626Z,33.97
2022-08-22T10:08:11.374Z,34.07
2022-08-22T10:09:31.230Z,34.19
2022-08-22T10:10:54.531Z,34.24
2022-08-22T10:12:12.772Z,34.46
2022-08-22T10:13:34.129Z,34.02
2022-08-22T10:14:50.543Z,34.17
2022-08-22T10:16:01.626Z,33.80
2022-08-22T10:17:21.530Z,33.65
2022-08-22T10:18:53.829Z,33.91
2022-08-22T10:20:06.079Z,33.69
2022-08-22T10:21:26.930Z,33.95
2022-08-22T10:22:34.357Z,33.67
2022-08-22T10:23:48.533Z,33.57
2022-08-22T10:25:09.059Z,33.36
2022-08-22T10:26:22.783Z,33.63
2022-08-22T10:27:40.186Z,33.75
2022-08-22T10:28:53.893Z,33.36
2022-08-22T10:30:05.172Z,33.31
2022-08-22T10:31:34.342Z,33.44
2022-08-22T10:32:56.916Z,32.91
2022-08-22T10:34:16.954Z,33.30
2022-08-22T10:35:27.243Z,33.52
2022-08-22T10:36:57.499Z,33.39
2022-08-22T10:38:10.809Z,33.49
2022-08-22T10:39:22.907Z,33.50
2022-08-22T10:40:37.882Z,33.87
2022-08-22T10:41:54.646Z,33.54
2022-08-22T10:43:10.836Z,33.94
2022-08-22T10:44:27.211Z,33.96
2022-08-22T10:45:35.781Z,33.91
2022-08-22T10:46:54.260Z,34.18
2022-08-22T10:47:57.239Z,33.73
2022-08-22T10:49:05.710Z,34.28
2022-08-22T10:50:20.096Z,34.67
2022-08-22T10:51:31.685Z,34.66
2022-08-22T10:52:47.000Z,34.94
2022-08-22T10:54:31.467Z,34.64
2022-08-22T10:55:39.811Z,34.55
2022-08-22T10:56:51.360Z,34.55
2022-08-22T10:58:12.801Z,34.45
2022-08-22T10:59:38.486Z,35.30
2022-08-22T11:00:56.645Z,35.60
2022-08-22T11:02:20.174Z,35.74
2022-08-22T11:03:53.161Z,35.27
2022-08-22T11:05:10.518Z,35.33
2022-08-22T11:06:20.714Z,35.07
2022-08-22T11:07:28.970Z,35.32
2022-08-22T11:08:40.291Z,35.45
2022-08-22T11:09:43.616Z,35.00
2022-08-22T11:10:52.134Z,35.37
2022-08-22T11:12:15.934Z,34.84
2022-08-22T11:13:43.394Z,35.31
2022-08-22T11:15:27.301Z,35.51
2022-08-22T11:16:44.175Z,35.38
2022-08-22T11:18:20.542Z,35.53
2022-08-22T11:19:49.679Z,35.72
2022-08-22T11:21:10.997Z,35.85
2022-08-22T11:22:13.183Z,35.67
2022-08-22T11:23:40.713Z,36.08
2022-08-22T11:25:13.963Z,35.84
2022-08-22T11:26:46.645Z,35.83
2022-08-22T11:27:52.652Z,35.87
2022-08-22T11:28:57.492Z,36.19
2022-08-22T11:30:11.118Z,36.15
2022-08-22T11:31:36.654Z,35.43
2022-08-22T11:32:44.244Z,35.80
2022-08-22T11:34:03.560Z,36.12
2022-08-22T11:35:22.785Z,35.75
2022-08-22T11:36:27.830Z,35.79
2022-08-22T11:37:45.046Z,35.88
2022-08-22T11:39:01.267Z,35.98
2022-08-22T11:40:34.428Z,36.10
2022-08-22T11:41:44.848Z,36.15
2022-08-22T11:43:20.113Z,36.28
2022-08-22T11:44:31.174Z,36.16
2022-08-22T11:45:45.022Z,36.43
2022-08-22T11:46:51.957Z,36.17
2022-08-22T11:48:04.802Z,35.99
2022-08-22T11:49:31.638Z,36.10
2022-08-22T11:50:37.357Z,35.83
2022-08-22T11:51:42.494Z,36.18
2022-08-22T11:52:44.683Z,36.09
2022-08-22T11:53:59.943Z,36.15
2022-08-22T11:55:33.266Z,36.49
2022-08-22T11:56:49.997Z,36.38
2022-08-22T11:57:56.863Z,36.53
2022-08-22T11:59:13.578Z,36.50
2022-08-22T12:00:23.102Z,36.50
2022-08-22T12:01:38.184Z,36.37
2022-08-22T12:02:41.519Z,36.17
2022-08-22T12:03:58.633Z,36.27
2022-08-22T12:05:24.534Z,36.28
2022-08-22T12:06:35.045Z,36.12
2022-08-22T12:07:44.430Z,37.00
2022-08-22T12:09:35.863Z,37.30
2022-08-22T12:11:12.228Z,37.76
2022-08-22T12:12:45.447Z,37.79
2022-08-22T12:14:06.243Z,38.06
2022-08-22T12:15:30.443Z,37.92
2022-08-22T12:16:53.281Z,37.91
2022-08-22T12:18:04.159Z,38.01
2022-08-22T12:19:22.953Z,37.67
2022-08-22T12:20:25.897Z,37.73
2022-08-22T12:21:36.864Z,38.28
2022-08-22T12:23:02.849Z,38.86
2022-08-22T12:24:11.247Z,38.99
2022-08-22T12:25:47.848Z,38.61
2022-08-22T12:27:01.772Z,38.22
2022-08-22T12:28:28.085Z,37.46
2022-08-22T12:29:45.177Z,37.71
2022-08-22T12:31:02.799Z,37.86
2022-08-22T12:32:34.060Z,37.44
2022-08-22T12:34:00.019Z,37.27
2022-08-22T12:35:52.525Z,36.80
2022-08-22T12:37:01.227Z,36.86
2022-08-22T12:38:28.486Z,36.88
2022-08-22T12:39:53.510Z,36.78
2022-08-22T12:41:28.289Z,37.01
2022-08-22T12:43:02.210Z,36.78
2022-08-22T12:44:30.889Z,37.31
2022-08-22T12:45:53.321Z,36.86
2022-08-22T12:47:13.740Z,37.03
2022-08-22T12:48:30.607Z,36.23
2022-08-22T12:49:56.004Z,36.09
2022-08-22T12:51:22.453Z,35.89
2022-08-22T12:52:47.923Z,36.48
2022-08-22T12:54:05.388Z,36.62
2022-08-22T12:55:42.387Z,36.62
2022-08-22T12:57:15.220Z,36.43
2022-08-22T12:58:44.553Z,35.68
2022-08-22T13:00:11.695Z,35.97
2022-08-22T13:01:15.585Z,35.95
2022-08-22T13:02:25.687Z,35.97
2022-08-22T13:03:32.462Z,35.56
2022-08-22T13:04:42.215Z,35.44
2022-08-22T13:05:52.426Z,35.54
2022-08-22T13:07:05.587Z,35.47
2022-08-22T13:08:22.634Z,35.76
2022-08-22T13:09:37.208Z,35.21
2022-08-22T13:10:51.062Z,35.32
2022-08-22T13:11:58.935Z,35.37
2022-08-22T13:13:12.052Z,35.14
2022-08-22T13:14:25.622Z,35.28
2022-08-22T13:15:33.588Z,35.13
2022-08-22T13:16:48.923Z,35.02
2022-08-22T13:17:54.777Z,35.17
2022-08-22T13:19:18.917Z,35.33
2022-08-22T13:20:26.641Z,34.87
2022-08-22T13:21:36.338Z,34.75
2022-08-22T13:22:45.398Z,34.78
2022-08-22T13:23:54.087Z,34.89
2022-08-22T13:25:14.370Z,34.93
2022-08-22T13:26:31.966Z,34.75
2022-08-22T13:27:50.747Z,34.70
2022-08-22T13:29:24.679Z,34.73
2022-08-22T13:30:33.663Z,34.03
2022-08-22T13:31:39.023Z,33.68
2022-08-22T13:32:52.756Z,33.39
2022-08-22T13:34:28.923Z,33.54
2022-08-22T13:35:37.558Z,32.76
2022-08-22T13:36:52.101Z,32.84
2022-08-22T13:38:07.752Z,33.08
2022-08-22T13:39:19.668Z,32.72
2022-08-22T13:40:27.044Z,32.87
2022-08-22T13:41:44.339Z,32.95
2022-08-22T13:42:50.301Z,33.00
2022-08-22T13:43:59.429Z,33.23
2022-08-22T13:45:10.930Z,33.16
2022-08-22T13:46:13.390Z,33.10
2022-08-22T13:47:22.173Z,33.29
2022-08-22T13:48:45.101Z,33.27
2022-08-22T13:49:52.935Z,33.71
2022-08-22T13:50:58.118Z,33.63
2022-08-22T13:52:29.185Z,34.33
2022-08-22T13:53:49.914Z,34.71
2022-08-22T13:55:17.010Z,34.90
2022-08-22T13:56:24.986Z,35.30
2022-08-22T13:57:39.496Z,35.54
2022-08-22T13:58:45.870Z,35.39
2022-08-22T14:00:12.186Z,36.00
2022-08-22T14:02:03.856Z,36.14
2022-08-22T14:03:11.971Z,35.70
2022-08-22T14:04:32.303Z,35.40
2022-08-22T14:05:53.253Z,35.77
2022-08-22T14:07:17.871Z,35.13
2022-08-22T14:08:31.963Z,35.05
2022-08-22T14:09:48.219Z,35.06
2022-08-22T14:11:02.062Z,35.14
2022-08-22T14:12:13.759Z,35.10
2022-08-22T14:13:40.596Z,35.24
2022-08-22T14:14:46.444Z,34.87
2022-08-22T14:15:48.700Z,34.67
2022-08-22T14:16:55.868Z,34.85
2022-08-22T14:18:13.913Z,34.93
2022-08-22T14:19:52.608Z,35.21
2022-08-22T14:21:24.601Z,35.16
2022-08-22T14:22:31.856Z,34.95
2022-08-22T14:23:35.678Z,35.02
2022-08-22T14:24:45.711Z,35.28
2022-08-22T14:25:48.782Z,35.19
2022-08-22T14:26:57.909Z,35.50
2022-08-22T14:28:09.639Z,35.75
2022-08-22T14:29:16.506Z,35.41
2022-08-22T14:30:24.475Z,35.00
2022-08-22T14:31:27.875Z,34.96
2022-08-22T14:32:53.761Z,35.32
2022-08-22T14:34:11.774Z,34.90
2022-08-22T14:35:23.188Z,34.58
2022-08-22T14:36:41.354Z,34.36
2022-08-22T14:37:49.723Z,34.17
2022-08-22T14:38:56.324Z,34.34
2022-08-22T14:40:26.164Z,34.74
2022-08-22T14:41:56.377Z,34.81
2022-08-22T14:43:16.382Z,34.86
2022-08-22T14:44:36.131Z,34.70
2022-08-22T14:45:45.365Z,34.78
2022-08-22T14:46:56.530Z,34.99
2022-08-22T14:48:30.987Z,34.82
2022-08-22T14:49:52.328Z,35.06
2022-08-22T14:50:58.611Z,35.41
2022-08-22T14:52:19.619Z,35.76
2022-08-22T14:53:25.435Z,35.72
2022-08-22T14:54:29.270Z,35.53
2022-08-22T14:55:32.143Z,35.13
2022-08-22T14:56:36.970Z,35.26
2022-08-22T14:58:05.924Z,35.48
2022-08-22T14:59:14.895Z,35.37
2022-08-22T15:00:39.738Z,35.51
2022-08-22T15:02:24.363Z,35.09
2022-08-22T15:03:32.377Z,34.75
2022-08-22T15:04:40.778Z,34.99
2022-08-22T15:05:57.060Z,34.74
2022-08-22T15:07:02.282Z,34.47
2022-08-22T15:08:05.373Z,34.18
2022-08-22T15:09:22.436Z,34.55
2022-08-22T15:10:31.701Z,34.64
2022-08-22T15:11:37.007Z,34.07
2022-08-22T15:12:47.605Z,34.23
2022-08-22T15:14:12.527Z,34.49
2022-08-22T15:15:49.763Z,34.32
2022-08-22T15:16:59.663Z,34.42
2022-08-22T15:18:10.581Z,34.17
2022-08-22T15:19:44.348Z,34.62
2022-08-22T15:20:49.386Z,34.26
2022-08-22T15:22:07.627Z,34.56
2022-08-22T15:23:20.700Z,34.56
2022-08-22T15:24:23.374Z,34.21
2022-08-22T15:25:28.251Z,34.71
2022-08-22T15:26:41.583Z,34.83
2022-08-22T15:28:05.597Z,34.98
2022-08-22T15:29:20.958Z,34.84
2022-08-22T15:30:44.292Z,34.76
2022-08-22T15:31:51.541Z,34.68
2022-08-22T15:33:07.663Z,34.39
2022-08-22T15:34:21.624Z,34.17
2022-08-22T15:35:31.075Z,34.40
2022-08-22T15:36:33.604Z,34.01
2022-08-22T15:38:04.113Z,34.38
2022-08-22T15:39:30.265Z,34.33
2022-08-22T15:40:40.388Z,34.22
2022-08-22T15:41:46.881Z,34.14
2022-08-22T15:42:50.998Z,34.09
2022-08-22T15:44:08.229Z,34.47
2022-08-22T15:45:30.893Z,34.55
2022-08-22T15:46:43.616Z,34.65
2022-08-22T15:47:52.140Z,34.35
2022-08-22T15:49:03.009Z,33.96
2022-08-22T15:50:10.665Z,34.14
2022-08-22T15:51:57.118Z,34.53
2022-08-22T15:53:23.917Z,34.73
2022-08-22T15:54:28.956Z,34.77
2022-08-22T15:55:31.762Z,34.25
2022-08-22T15:56:41.803Z,34.70
2022-08-22T15:57:59.990Z,34.74
2022-08-22T15:59:47.952Z,34.52
2022-08-22T16:01:19.871Z,34.66
2022-08-22T16:02:28.691Z,34.49
2022-08-22T16:03:35.531Z,34.30
2022-08-22T16:04:37.677Z,33.82
2022-08-22T16:05:53.189Z,33.85
2022-08-22T16:07:01.262Z,34.05
2022-08-22T16:08:27.514Z,34.50
2022-08-22T16:09:54.200Z,34.22
2022-08-22T16:11:15.666Z,34.38
2022-08-22T16:12:31.755Z,34.47
2022-08-22T16:13:39.315Z,34.63
2022-08-22T16:14:41.423Z,34.35
2022-08-22T16:15:54.180Z,34.74
2022-08-22T16:17:03.666Z,34.67
2022-08-22T16:18:06.789Z,34.27
2022-08-22T16:19:18.438Z,34.40
2022-08-22T16:20:20.545Z,33.68
2022-08-22T16:21:22.689Z,33.86
2022-08-22T16:23:06.468Z,34.24
2022-08-22T16:24:08.760Z,33.78
2022-08-22T16:25:11.203Z,33.26
2022-08-22T16:26:24.802Z,33.32
2022-08-22T16:27:27.890Z,32.98
2022-08-22T16:28:57.439Z,33.04
2022-08-22T16:30:05.555Z,32.98
2022-08-22T16:31:48.841Z,33.21
2022-08-22T16:32:54.206Z,32.94